Merna, IL (61758)

9:36 PM CST on January 26, 2015 (GMT -0600)
Eagle Ridge | Change Station
CLOSE
Current Station
Personal Weather Station
Location: Bloomington, IL
Elevation: 856 ft
Nearby Weather Stations
Active Advisory: Freezing Rain Advisory

Elev 856 ft 40.51 °N, 88.93 °W | Updated 25 seconds ago

Overcast
Overcast
29.8 °F
Feels Like 30 °F
N
0.0
Wind Variable Wind from SE
Gusts 0.0 mph

Today
High -- | Low -- °F
--% Chance of Precip.
Yesterday
High -- | Low -- °F
Precip. -- in
7:10 AM 5:05 PM
Waxing Crescent, 49% visible
Pressure 29.95 in
Visibility 1.5 miles
Clouds Overcast 200 ft
Windchill 30 °F
Dew Point 29 °F
Humidity 96%
Rainfall 0.00 in
Snow Depth Not available.
UV 0 out of 12
Pollen .10 out of 12
Air Quality Not available.
Flu Activity Not available.
METAR KBMI 270256Z 21007KT 1 1/2SM BR OVC002 M01/M01 A2989 RMK AO2 50001 60000 T10111011 FZRAE37 P0000 SLP141

More Conditions Fewer Conditions

Pressure 29.95 in
Visibility 1.5 miles
Clouds Overcast 200 ft
Windchill 30 °F
Dew Point 29 °F
Humidity 96%
Rainfall 0.00 in
Snow Depth Not available.
UV 0 out of 12
Pollen .10 out of 12
Air Quality Not available.
Flu Activity Not available.
METAR KBMI 270256Z 21007KT 1 1/2SM BR OVC002 M01/M01 A2989 RMK AO2 50001 60000 T10111011 FZRAE37 P0000 SLP141

More Conditions Fewer Conditions

10-Day Weather Forecast

Almanac

Astronomy

Jan. 26, 2015 Rise Set
Actual Time
Civil Twilight
Nautical Twilight
Astronomical Twilight
Moon
Length of Visible Light
Length of Day
Tomorrow will be .
, % of the Moon is Illuminated

Today's Extremes

State Highs State Lows

Community

WunderPhotos

Upload Photos

1,790,502 photos uploaded!

WunderBlogs® & News

Nearby

Air Quality

  Air Quality AQ Index Pollutant
Not available.

Snow Depth

Station Depth Elevation

Earthquake Activity

City Distance Mag. Time & Date
Minimum magnitude displayed is 2.5.

Coastal Water Temperatures

Place Temperature

Nearby Weather Stations